B72AP ZGSZ-ZGNT
Flight info
| Callsign | B72AP |
|---|---|
| Flight time | 0h -9m |
| Altitude | 1000 |
| Route | VFR |
| Aircraft | EC35/L-SDGRY/S |
Departure
| Time | 2026-04-22 08:18 |
|---|---|
| Airport | Shenzhen Bao'an International Airport (ZGSZ) |
Arrival
| Time | 2026-04-22 08:09 |
|---|---|
| Airport | Shenzhen Nantou Heliport (ZGNT) |
| Time | Latitude | Longitude | Altitude | Speed | Heading |
|---|---|---|---|---|---|
| 2026-04-22 08:09 | 22.64372 | 113.81221 | 7 ft | 0 kts | 22° |
| 2026-04-22 08:10 | 22.64371 | 113.81222 | 7 ft | 0 kts | 13° |
| 2026-04-22 08:10 | 22.64371 | 113.81221 | 7 ft | 0 kts | 15° |
| 2026-04-22 08:13 | 22.64373 | 113.81223 | 10 ft | 4 kts | 25° |
| 2026-04-22 08:13 | 22.64381 | 113.81243 | 27 ft | 5 kts | 84° |
| 2026-04-22 08:13 | 22.64326 | 113.81219 | 27 ft | 12 kts | 196° |
| 2026-04-22 08:14 | 22.64288 | 113.81163 | 18 ft | 14 kts | 210° |
| 2026-04-22 08:14 | 22.64303 | 113.81087 | 28 ft | 27 kts | 354° |
| 2026-04-22 08:14 | 22.64523 | 113.80960 | 22 ft | 31 kts | 323° |
| 2026-04-22 08:14 | 22.64692 | 113.80867 | 23 ft | 23 kts | 331° |
| 2026-04-22 08:15 | 22.64891 | 113.80763 | 38 ft | 42 kts | 329° |
| 2026-04-22 08:15 | 22.65044 | 113.80674 | 15 ft | 30 kts | 335° |
| 2026-04-22 08:15 | 22.65233 | 113.80567 | 22 ft | 32 kts | 329° |
| 2026-04-22 08:15 | 22.65336 | 113.80486 | 39 ft | 14 kts | 265° |
| 2026-04-22 08:16 | 22.65344 | 113.80433 | 42 ft | 16 kts | 223° |
| 2026-04-22 08:16 | 22.65283 | 113.80359 | 25 ft | 6 kts | 194° |
| 2026-04-22 08:16 | 22.65254 | 113.80347 | 18 ft | 12 kts | 189° |
| 2026-04-22 08:16 | 22.65113 | 113.80407 | 28 ft | 34 kts | 155° |
| 2026-04-22 08:17 | 22.64842 | 113.80538 | 112 ft | 46 kts | 155° |
| 2026-04-22 08:17 | 22.64504 | 113.80689 | 242 ft | 55 kts | 163° |
| 2026-04-22 08:17 | 22.64130 | 113.80871 | 318 ft | 66 kts | 160° |
| 2026-04-22 08:17 | 22.63705 | 113.81179 | 236 ft | 79 kts | 155° |
| 2026-04-22 08:18 | 22.63176 | 113.81449 | 323 ft | 81 kts | 156° |
| 2026-04-22 08:18 | 22.62650 | 113.81681 | 494 ft | 86 kts | 158° |
| 2026-04-22 08:18 | 22.62081 | 113.81895 | 590 ft | 84 kts | 183° |
| 2026-04-22 08:18 | 22.61686 | 113.81459 | 619 ft | 97 kts | 251° |
| 2026-04-22 08:19 | 22.61607 | 113.80790 | 650 ft | 93 kts | 253° |
| 2026-04-22 08:19 | 22.61567 | 113.80063 | 702 ft | 105 kts | 277° |
| 2026-04-22 08:19 | 22.62038 | 113.79387 | 690 ft | 120 kts | 320° |
| 2026-04-22 08:19 | 22.62795 | 113.78975 | 773 ft | 120 kts | 332° |
| 2026-04-22 08:20 | 22.63591 | 113.78645 | 744 ft | 129 kts | 323° |
| 2026-04-22 08:20 | 22.64398 | 113.78046 | 511 ft | 147 kts | 320° |
| 2026-04-22 08:20 | 22.65238 | 113.77469 | 563 ft | 144 kts | 325° |
| 2026-04-22 08:20 | 22.66126 | 113.76953 | 667 ft | 141 kts | 328° |
| 2026-04-22 08:21 | 22.67028 | 113.76968 | 889 ft | 129 kts | 29° |
| 2026-04-22 08:21 | 22.67239 | 113.77748 | 935 ft | 107 kts | 134° |
| 2026-04-22 08:21 | 22.66609 | 113.77977 | 761 ft | 92 kts | 170° |
| 2026-04-22 08:21 | 22.66039 | 113.78150 | 350 ft | 78 kts | 154° |
| 2026-04-22 08:22 | 22.65645 | 113.78366 | 142 ft | 50 kts | 155° |
| 2026-04-22 08:22 | 22.65458 | 113.78481 | 34 ft | 12 kts | 161° |
| 2026-04-22 08:22 | 22.65427 | 113.78497 | 40 ft | 24 kts | 157° |
| 2026-04-22 08:22 | 22.65114 | 113.78661 | 39 ft | 69 kts | 152° |
| 2026-04-22 08:23 | 22.64629 | 113.78930 | 38 ft | 86 kts | 152° |
| 2026-04-22 08:23 | 22.64087 | 113.79212 | 120 ft | 85 kts | 151° |
| 2026-04-22 08:23 | 22.63664 | 113.79647 | 272 ft | 85 kts | 129° |
| 2026-04-22 08:23 | 22.63323 | 113.80177 | 432 ft | 90 kts | 128° |
| 2026-04-22 08:24 | 22.63083 | 113.80849 | 608 ft | 103 kts | 114° |
| 2026-04-22 08:24 | 22.62913 | 113.81620 | 773 ft | 107 kts | 118° |
| 2026-04-22 08:24 | 22.62711 | 113.82441 | 908 ft | 119 kts | 107° |
| 2026-04-22 08:24 | 22.62376 | 113.83303 | 826 ft | 127 kts | 139° |
| 2026-04-22 08:25 | 22.61560 | 113.83677 | 775 ft | 127 kts | 159° |
| 2026-04-22 08:25 | 22.60718 | 113.83989 | 730 ft | 129 kts | 158° |
| 2026-04-22 08:25 | 22.59880 | 113.84384 | 723 ft | 133 kts | 153° |
| 2026-04-22 08:25 | 22.59099 | 113.84976 | 655 ft | 139 kts | 143° |
| 2026-04-22 08:26 | 22.58486 | 113.85808 | 535 ft | 135 kts | 131° |
| 2026-04-22 08:26 | 22.57868 | 113.86558 | 493 ft | 139 kts | 135° |
| 2026-04-22 08:26 | 22.57362 | 113.87268 | 193 ft | 128 kts | 125° |
| 2026-04-22 08:26 | 22.57041 | 113.88095 | 656 ft | 116 kts | 109° |
| 2026-04-22 08:27 | 22.57036 | 113.89008 | 1052 ft | 125 kts | 99° |
| 2026-04-22 08:27 | 22.56692 | 113.89869 | 1221 ft | 133 kts | 122° |
| 2026-04-22 08:27 | 22.56422 | 113.90852 | 1140 ft | 123 kts | 110° |
| 2026-04-22 08:27 | 22.56210 | 113.91636 | 901 ft | 85 kts | 111° |
| 2026-04-22 08:28 | 22.56067 | 113.92054 | 635 ft | 36 kts | 126° |
| 2026-04-22 08:28 | 22.55984 | 113.92182 | 279 ft | 9 kts | 102° |
| 2026-04-22 08:28 | 22.55968 | 113.92229 | 208 ft | 8 kts | 104° |
| 2026-04-22 08:28 | 22.55946 | 113.92319 | 155 ft | 14 kts | 104° |
| 2026-04-22 08:29 | 22.55923 | 113.92401 | 118 ft | 9 kts | 108° |
| 2026-04-22 08:29 | 22.55910 | 113.92453 | 93 ft | 3 kts | 109° |
| 2026-04-22 08:29 | 22.55907 | 113.92470 | 87 ft | 3 kts | 91° |
| 2026-04-22 08:29 | 22.55963 | 113.92506 | 104 ft | 11 kts | 334° |
| 2026-04-22 08:30 | 22.55993 | 113.92468 | 104 ft | 6 kts | 181° |
| 2026-04-22 08:30 | 22.55981 | 113.92466 | 77 ft | 0 kts | 188° |
| 2026-04-22 08:30 | 22.55981 | 113.92465 | 77 ft | 0 kts | 185° |